createdAt,value
2017-08-14T00:01:53.940Z,94836.52
2017-08-14T00:04:21.731Z,94829.09
2017-08-14T00:06:49.465Z,94824.02
2017-08-14T00:09:17.215Z,94826.98
2017-08-14T00:11:45.164Z,94828.28
2017-08-14T00:14:12.880Z,94827.64
2017-08-14T00:16:40.620Z,94826.30
2017-08-14T00:19:09.431Z,94818.25
2017-08-14T00:21:37.199Z,94824.16
2017-08-14T00:24:05.011Z,94823.83
2017-08-14T00:26:34.201Z,94825.23
2017-08-14T00:29:01.974Z,94821.36
2017-08-14T00:31:29.690Z,94822.69
2017-08-14T00:33:58.452Z,94820.52
2017-08-14T00:36:26.262Z,94813.25
2017-08-14T00:38:53.958Z,94815.69
2017-08-14T00:41:21.660Z,94816.48
2017-08-14T00:43:49.436Z,94814.23
2017-08-14T00:46:17.187Z,94811.05
2017-08-14T00:48:44.892Z,94815.37
2017-08-14T00:51:12.669Z,94812.26
2017-08-14T00:53:40.410Z,94813.33
2017-08-14T00:56:08.139Z,94815.45
2017-08-14T00:58:35.892Z,94818.90
2017-08-14T01:01:03.598Z,94816.45
2017-08-14T01:03:31.395Z,94819.70
2017-08-14T01:05:59.072Z,94823.91
2017-08-14T01:08:26.789Z,94824.25
2017-08-14T01:10:54.545Z,94824.66
2017-08-14T01:13:22.255Z,94821.12
2017-08-14T01:15:49.967Z,94818.16
2017-08-14T01:18:18.863Z,94818.37
2017-08-14T01:20:46.685Z,94823.46
2017-08-14T01:23:14.360Z,94819.15
2017-08-14T01:25:42.054Z,94819.79
2017-08-14T01:28:09.839Z,94820.83
2017-08-14T01:30:37.605Z,94819.34
2017-08-14T01:33:05.346Z,94824.36
2017-08-14T01:35:33.034Z,94817.61
2017-08-14T01:38:00.779Z,94821.16
2017-08-14T01:40:28.529Z,94818.67
2017-08-14T01:42:56.235Z,94817.42
2017-08-14T01:45:24.025Z,94812.50
2017-08-14T01:47:51.734Z,94816.14
2017-08-14T01:50:19.497Z,94820.45
2017-08-14T01:52:48.323Z,94822.47
2017-08-14T01:55:16.024Z,94815.92
2017-08-14T01:57:43.782Z,94819.37
2017-08-14T02:00:11.478Z,94822.23
2017-08-14T02:02:39.251Z,94821.05
2017-08-14T02:05:08.071Z,94818.13
2017-08-14T02:07:35.780Z,94821.25
2017-08-14T02:10:03.526Z,94822.97
2017-08-14T02:12:31.194Z,94820.53
2017-08-14T02:14:58.963Z,94831.40
2017-08-14T02:17:26.657Z,94817.81
2017-08-14T02:19:54.384Z,94824.48
2017-08-14T02:22:22.121Z,94822.03
2017-08-14T02:24:49.838Z,94814.50
2017-08-14T02:27:17.514Z,94822.17
2017-08-14T02:29:45.244Z,94817.16
2017-08-14T02:32:12.963Z,94814.91
2017-08-14T02:34:40.670Z,94815.86
2017-08-14T02:37:08.466Z,94814.79
2017-08-14T02:39:36.162Z,94817.50
2017-08-14T02:42:03.850Z,94816.09
2017-08-14T02:44:31.625Z,94815.48
2017-08-14T02:46:59.380Z,94810.84
2017-08-14T02:49:27.053Z,94819.47
2017-08-14T02:51:54.807Z,94821.26
2017-08-14T02:54:22.571Z,94822.41
2017-08-14T02:56:50.374Z,94825.80
2017-08-14T02:59:18.104Z,94825.25
2017-08-14T03:01:45.813Z,94825.44
2017-08-14T03:04:13.609Z,94830.25
2017-08-14T03:06:41.299Z,94835.63
2017-08-14T03:09:09.070Z,94834.52
2017-08-14T03:11:36.796Z,94840.16
2017-08-14T03:14:04.498Z,94837.58
2017-08-14T03:16:32.283Z,94832.08
2017-08-14T03:18:59.993Z,94834.13
2017-08-14T03:21:27.721Z,94830.21
2017-08-14T03:23:55.480Z,94832.08
2017-08-14T03:26:23.163Z,94833.25
2017-08-14T03:28:50.851Z,94829.83
2017-08-14T03:31:18.609Z,94830.25
2017-08-14T03:33:46.334Z,94829.74
2017-08-14T03:36:14.142Z,94830.73
2017-08-14T03:38:41.839Z,94828.78
2017-08-14T03:41:09.541Z,94824.19
2017-08-14T03:43:37.267Z,94829.80
2017-08-14T03:46:05.001Z,94826.45
2017-08-14T03:48:32.765Z,94828.75
2017-08-14T03:51:01.582Z,94830.83
2017-08-14T03:53:29.317Z,94828.54
2017-08-14T03:55:57.018Z,94830.05
2017-08-14T03:58:24.780Z,94831.69
2017-08-14T04:00:52.619Z,94827.57
2017-08-14T04:03:20.321Z,94834.62
2017-08-14T04:05:48.066Z,94824.98
2017-08-14T04:08:15.830Z,94830.27
2017-08-14T04:10:43.651Z,94828.27
2017-08-14T04:13:11.348Z,94832.05
2017-08-14T04:15:39.119Z,94826.94
2017-08-14T04:18:06.900Z,94830.30
2017-08-14T04:20:34.586Z,94830.22
2017-08-14T04:23:02.265Z,94823.67
2017-08-14T04:25:30.011Z,94825.24
2017-08-14T04:27:57.805Z,94826.84
2017-08-14T04:30:25.524Z,94833.03
2017-08-14T04:32:53.253Z,94831.57
2017-08-14T04:35:21.017Z,94837.45
2017-08-14T04:37:48.731Z,94840.09
2017-08-14T04:40:16.431Z,94834.61
2017-08-14T04:42:44.196Z,94830.06
2017-08-14T04:45:11.919Z,94841.45
2017-08-14T04:47:40.632Z,94835.41
2017-08-14T04:50:08.346Z,94835.41
2017-08-14T04:52:36.124Z,94837.41
2017-08-14T04:55:03.918Z,94841.77
2017-08-14T04:57:31.638Z,94842.52
2017-08-14T04:59:59.326Z,94838.79
2017-08-14T05:02:27.110Z,94837.09
2017-08-14T05:04:54.836Z,94840.95
2017-08-14T05:07:22.612Z,94845.09
2017-08-14T05:09:50.304Z,94844.95
2017-08-14T05:12:18.026Z,94843.06
2017-08-14T05:14:45.735Z,94847.11
2017-08-14T05:17:14.088Z,94843.70
2017-08-14T05:19:41.851Z,94843.70
2017-08-14T05:22:09.641Z,94839.42
2017-08-14T05:24:37.428Z,94845.27
2017-08-14T05:27:05.223Z,94844.15
2017-08-14T05:29:32.993Z,94841.47
2017-08-14T05:32:00.720Z,94842.34
2017-08-14T05:34:28.425Z,94848.74
2017-08-14T05:36:56.160Z,94855.20
2017-08-14T05:39:23.992Z,94843.58
2017-08-14T05:41:51.698Z,94844.64
2017-08-14T05:44:19.434Z,94848.42
2017-08-14T05:46:47.106Z,94845.56
2017-08-14T05:49:16.198Z,94840.52
2017-08-14T05:51:44.849Z,94848.57
2017-08-14T05:54:12.555Z,94845.52
2017-08-14T05:56:40.279Z,94841.72
2017-08-14T05:59:08.045Z,94845.53
2017-08-14T06:01:35.812Z,94842.33
2017-08-14T06:04:03.507Z,94846.36
2017-08-14T06:06:31.270Z,94848.50
2017-08-14T06:08:59.054Z,94847.00
2017-08-14T06:11:26.807Z,94840.76
2017-08-14T06:13:54.585Z,94839.83
2017-08-14T06:16:25.100Z,94842.88
2017-08-14T06:18:52.825Z,94842.02
2017-08-14T06:21:20.615Z,94842.06
2017-08-14T06:23:49.286Z,94842.82
2017-08-14T06:26:17.016Z,94838.63
2017-08-14T06:28:46.012Z,94839.19
2017-08-14T06:31:13.706Z,94838.23
2017-08-14T06:33:41.499Z,94836.22
2017-08-14T06:36:09.518Z,94835.55
2017-08-14T06:38:37.269Z,94836.81
2017-08-14T06:41:05.010Z,94844.38
2017-08-14T06:43:33.703Z,94840.06
2017-08-14T06:46:01.446Z,94842.66
2017-08-14T06:48:29.182Z,94839.03
2017-08-14T06:50:57.862Z,94837.48
2017-08-14T06:53:25.729Z,94838.11
2017-08-14T06:55:53.459Z,94837.23
2017-08-14T06:58:21.242Z,94837.88
2017-08-14T07:00:49.047Z,94837.89
2017-08-14T07:03:17.500Z,94837.81
2017-08-14T07:05:45.957Z,94842.73
2017-08-14T07:08:13.729Z,94836.77
2017-08-14T07:10:41.460Z,94831.14
2017-08-14T07:13:10.219Z,94831.92
2017-08-14T07:15:37.991Z,94830.02
2017-08-14T07:18:05.803Z,94824.36
2017-08-14T07:20:33.548Z,94821.78
2017-08-14T07:23:01.240Z,94823.83
2017-08-14T07:25:28.997Z,94825.61
2017-08-14T07:27:56.725Z,94818.81
2017-08-14T07:30:24.491Z,94816.73
2017-08-14T07:32:52.277Z,94813.36
2017-08-14T07:35:19.979Z,94811.34
2017-08-14T07:37:47.720Z,94806.08
2017-08-14T07:40:15.480Z,94805.64
2017-08-14T07:42:43.223Z,94802.23
2017-08-14T07:45:11.081Z,94806.27
2017-08-14T07:47:38.835Z,94793.23
2017-08-14T07:50:06.624Z,94798.33
2017-08-14T07:52:35.154Z,94799.68
2017-08-14T07:55:02.947Z,94794.04
2017-08-14T07:57:30.729Z,94799.42
2017-08-14T07:59:58.451Z,94792.72
2017-08-14T08:02:26.209Z,94785.86
2017-08-14T08:04:54.052Z,94787.85
2017-08-14T08:07:21.889Z,94788.95
2017-08-14T08:09:49.670Z,94782.64
2017-08-14T08:12:17.382Z,94781.06
2017-08-14T08:14:45.158Z,94775.70
2017-08-14T08:17:12.881Z,94781.03
2017-08-14T08:19:41.384Z,94779.72
2017-08-14T08:22:09.188Z,94774.80
2017-08-14T08:24:36.906Z,94782.15
2017-08-14T08:27:05.897Z,94777.42
2017-08-14T08:29:33.680Z,94775.01
2017-08-14T08:32:01.418Z,94762.23
2017-08-14T08:34:29.257Z,94768.33
2017-08-14T08:36:57.035Z,94765.92
2017-08-14T08:39:24.803Z,94756.94
2017-08-14T08:41:52.559Z,94758.26
2017-08-14T08:44:20.275Z,94759.02
2017-08-14T08:46:48.174Z,94756.81
2017-08-14T08:49:16.018Z,94758.13
2017-08-14T08:51:43.768Z,94756.77
2017-08-14T08:54:11.577Z,94748.52
2017-08-14T08:56:39.314Z,94747.40
2017-08-14T08:59:07.099Z,94745.12
2017-08-14T09:01:34.856Z,94751.22
2017-08-14T09:04:02.574Z,94743.84
2017-08-14T09:06:30.344Z,94742.77
2017-08-14T09:08:58.061Z,94738.94
2017-08-14T09:11:25.901Z,94736.92
2017-08-14T09:13:54.093Z,94731.20
2017-08-14T09:16:21.998Z,94731.80
2017-08-14T09:18:49.741Z,94728.34
2017-08-14T09:21:17.491Z,94727.64
2017-08-14T09:23:45.227Z,94721.81
2017-08-14T09:26:13.058Z,94719.28
2017-08-14T09:28:41.386Z,94723.20
2017-08-14T09:31:09.170Z,94716.66
2017-08-14T09:33:36.956Z,94719.20
2017-08-14T09:36:04.694Z,94716.48
2017-08-14T09:38:32.569Z,94719.10
2017-08-14T09:41:00.937Z,94708.56
2017-08-14T09:43:28.699Z,94705.94
2017-08-14T09:45:56.407Z,94704.02
2017-08-14T09:48:24.154Z,94708.62
2017-08-14T09:50:51.940Z,94709.75
2017-08-14T09:53:19.663Z,94711.41
2017-08-14T09:55:47.389Z,94702.88
2017-08-14T09:58:15.087Z,94689.00
2017-08-14T10:00:46.514Z,94702.63
2017-08-14T10:03:15.052Z,94693.67
2017-08-14T10:05:42.830Z,94690.91
2017-08-14T10:08:10.548Z,94689.09
2017-08-14T10:10:38.359Z,94686.59
2017-08-14T10:13:06.077Z,94685.72
2017-08-14T10:15:33.838Z,94683.59
2017-08-14T10:18:01.652Z,94675.79
2017-08-14T10:20:29.342Z,94674.43
2017-08-14T10:22:57.046Z,94675.78
2017-08-14T10:25:24.837Z,94673.87
2017-08-14T10:27:52.577Z,94675.45
2017-08-14T10:30:20.337Z,94665.34
2017-08-14T10:32:48.053Z,94662.42
2017-08-14T10:35:15.852Z,94660.55
2017-08-14T10:37:44.328Z,94660.10
2017-08-14T10:40:12.012Z,94654.13
2017-08-14T10:42:40.122Z,94649.06
2017-08-14T10:45:07.889Z,94648.81
2017-08-14T10:47:35.661Z,94642.63
2017-08-14T10:50:03.388Z,94638.13
2017-08-14T10:52:31.193Z,94638.96
2017-08-14T10:54:58.919Z,94638.27
2017-08-14T10:57:26.699Z,94635.47
2017-08-14T10:59:54.503Z,94630.96
2017-08-14T11:02:22.235Z,94629.16
2017-08-14T11:04:50.024Z,94626.38
2017-08-14T11:07:17.789Z,94625.13
2017-08-14T11:09:46.202Z,94617.53
2017-08-14T11:12:14.004Z,94614.58
2017-08-14T11:14:41.847Z,94614.94
2017-08-14T11:17:09.559Z,94612.47
2017-08-14T11:19:37.315Z,94610.42
2017-08-14T11:22:05.096Z,94608.02
2017-08-14T11:24:33.019Z,94607.33
2017-08-14T11:27:00.735Z,94604.20
2017-08-14T11:29:28.541Z,94601.98
2017-08-14T11:31:56.269Z,94598.47
2017-08-14T11:34:24.074Z,94601.87
2017-08-14T11:36:51.776Z,94601.22
2017-08-14T11:39:19.491Z,94599.05
2017-08-14T11:41:47.270Z,94593.50
2017-08-14T11:44:15.046Z,94596.03
2017-08-14T11:46:42.771Z,94589.47
2017-08-14T11:49:10.550Z,94586.58
2017-08-14T11:51:38.262Z,94584.47
2017-08-14T11:54:05.976Z,94588.48
2017-08-14T11:56:33.722Z,94580.08
2017-08-14T11:59:01.463Z,94582.34
2017-08-14T12:01:29.295Z,94578.77
2017-08-14T12:03:56.997Z,94578.17
2017-08-14T12:06:24.754Z,94570.99
2017-08-14T12:08:52.515Z,94575.59
2017-08-14T12:11:20.275Z,94576.02
2017-08-14T12:13:48.105Z,94573.81
2017-08-14T12:16:15.822Z,94569.83
2017-08-14T12:18:43.575Z,94565.43
2017-08-14T12:21:11.282Z,94569.49
2017-08-14T12:23:38.986Z,94573.11
2017-08-14T12:26:06.793Z,94566.78
2017-08-14T12:28:34.501Z,94563.38
2017-08-14T12:31:02.272Z,94551.83
2017-08-14T12:33:29.984Z,94554.59
2017-08-14T12:35:57.783Z,94557.26
2017-08-14T12:38:25.498Z,94547.38
2017-08-14T12:40:53.220Z,94544.15
2017-08-14T12:43:21.002Z,94538.91
2017-08-14T12:45:48.701Z,94536.61
2017-08-14T12:48:16.486Z,94540.22
2017-08-14T12:50:44.213Z,94528.44
2017-08-14T12:53:12.033Z,94529.67
2017-08-14T12:55:39.735Z,94523.17
2017-08-14T12:58:07.523Z,94524.14
2017-08-14T13:00:35.284Z,94521.37
2017-08-14T13:03:03.020Z,94517.41
2017-08-14T13:05:30.795Z,94509.88
2017-08-14T13:07:58.515Z,94512.45
2017-08-14T13:10:26.281Z,94509.86
2017-08-14T13:12:54.883Z,94513.01
2017-08-14T13:15:22.603Z,94509.39
2017-08-14T13:17:50.342Z,94510.19
2017-08-14T13:20:18.105Z,94508.64
2017-08-14T13:22:45.862Z,94506.59
2017-08-14T13:25:13.599Z,94499.95
2017-08-14T13:27:42.263Z,94495.06
2017-08-14T13:30:10.050Z,94498.59
2017-08-14T13:32:37.869Z,94498.83
2017-08-14T13:35:05.610Z,94499.92
2017-08-14T13:37:33.413Z,94500.82
2017-08-14T13:40:01.159Z,94498.00
2017-08-14T13:42:28.922Z,94493.14
2017-08-14T13:44:56.765Z,94492.73
2017-08-14T13:47:24.527Z,94495.58
2017-08-14T13:49:52.342Z,94486.78
2017-08-14T13:52:20.029Z,94486.95
2017-08-14T13:54:48.344Z,94486.55
2017-08-14T13:57:16.131Z,94482.14
2017-08-14T13:59:43.915Z,94483.40
2017-08-14T14:02:11.611Z,94476.25
2017-08-14T14:04:39.346Z,94475.22
2017-08-14T14:07:07.214Z,94474.95
2017-08-14T14:09:35.460Z,94476.77
2017-08-14T14:12:03.169Z,94469.22
2017-08-14T14:14:30.890Z,94471.55
2017-08-14T14:16:58.681Z,94472.08
2017-08-14T14:19:26.569Z,94467.33
2017-08-14T14:21:54.269Z,94466.03
2017-08-14T14:24:22.005Z,94463.32
2017-08-14T14:26:49.742Z,94462.25
2017-08-14T14:29:17.425Z,94465.80
2017-08-14T14:31:45.245Z,94467.92
2017-08-14T14:34:12.944Z,94461.38
2017-08-14T14:36:40.875Z,94464.52
2017-08-14T14:39:08.687Z,94463.70
2017-08-14T14:41:36.404Z,94462.14
2017-08-14T14:44:05.169Z,94458.92
2017-08-14T14:46:32.929Z,94456.09
2017-08-14T14:49:00.660Z,94455.23
2017-08-14T14:51:28.352Z,94455.73
2017-08-14T14:53:56.103Z,94453.61
2017-08-14T14:56:23.842Z,94458.84
2017-08-14T14:58:51.634Z,94450.51
2017-08-14T15:01:19.407Z,94452.65
2017-08-14T15:03:47.144Z,94452.34
2017-08-14T15:06:14.900Z,94452.80
2017-08-14T15:08:43.553Z,94452.94
2017-08-14T15:11:12.465Z,94453.80
2017-08-14T15:13:40.164Z,94452.63
2017-08-14T15:16:07.929Z,94449.23
2017-08-14T15:18:35.648Z,94445.16
2017-08-14T15:21:03.354Z,94454.30
2017-08-14T15:23:31.077Z,94455.67
2017-08-14T15:25:58.965Z,94450.83
2017-08-14T15:28:26.702Z,94451.43
2017-08-14T15:30:54.415Z,94452.37
2017-08-14T15:33:22.238Z,94455.45
2017-08-14T15:35:49.935Z,94449.33
2017-08-14T15:38:17.726Z,94450.72
2017-08-14T15:40:45.449Z,94450.34
2017-08-14T15:43:13.221Z,94455.73
2017-08-14T15:45:40.927Z,94455.03
2017-08-14T15:48:08.667Z,94457.88
2017-08-14T15:50:36.385Z,94454.97
2017-08-14T15:53:04.170Z,94459.89
2017-08-14T15:55:31.882Z,94458.03
2017-08-14T15:57:59.586Z,94457.92
2017-08-14T16:00:27.359Z,94454.70
2017-08-14T16:02:55.111Z,94458.86
2017-08-14T16:05:22.888Z,94462.89
2017-08-14T16:07:50.697Z,94462.41
2017-08-14T16:10:18.491Z,94463.90
2017-08-14T16:12:46.189Z,94462.48
2017-08-14T16:15:13.948Z,94462.25
2017-08-14T16:17:42.166Z,94458.55
2017-08-14T16:20:09.882Z,94462.89
2017-08-14T16:22:37.858Z,94463.42
2017-08-14T16:25:05.608Z,94466.47
2017-08-14T16:27:33.300Z,94462.39
2017-08-14T16:30:01.209Z,94470.59
2017-08-14T16:32:28.959Z,94462.84
2017-08-14T16:34:56.681Z,94464.97
2017-08-14T16:37:24.440Z,94465.16
2017-08-14T16:39:52.138Z,94459.56
2017-08-14T16:42:19.851Z,94462.44
2017-08-14T16:44:47.598Z,94463.37
2017-08-14T16:47:15.318Z,94463.92
2017-08-14T16:49:43.123Z,94468.72
2017-08-14T16:52:10.842Z,94472.73
2017-08-14T16:54:38.569Z,94477.19
2017-08-14T16:57:06.325Z,94473.48
2017-08-14T16:59:34.089Z,94476.79
2017-08-14T17:02:01.798Z,94477.39
2017-08-14T17:04:29.496Z,94478.97
2017-08-14T17:06:58.193Z,94486.36
2017-08-14T17:09:25.970Z,94483.11
2017-08-14T17:11:53.699Z,94487.80
2017-08-14T17:14:21.442Z,94490.09
2017-08-14T17:16:49.256Z,94492.16
2017-08-14T17:19:16.958Z,94491.83
2017-08-14T17:21:44.723Z,94498.03
2017-08-14T17:24:12.488Z,94496.03
2017-08-14T17:26:40.346Z,94496.80
2017-08-14T17:29:08.065Z,94501.92
2017-08-14T17:31:35.849Z,94506.34
2017-08-14T17:34:03.579Z,94509.66
2017-08-14T17:36:31.287Z,94508.97
2017-08-14T17:38:59.085Z,94511.16
2017-08-14T17:41:26.947Z,94513.39
2017-08-14T17:43:54.686Z,94517.75
2017-08-14T17:46:22.524Z,94520.00
2017-08-14T17:48:50.213Z,94516.08
2017-08-14T17:51:19.044Z,94523.80
2017-08-14T17:53:46.762Z,94528.47
2017-08-14T17:56:14.584Z,94534.10
2017-08-14T17:58:42.337Z,94534.41
2017-08-14T18:01:10.081Z,94534.32
2017-08-14T18:03:38.488Z,94536.69
2017-08-14T18:06:06.324Z,94535.61
2017-08-14T18:08:34.040Z,94541.03
2017-08-14T18:11:01.866Z,94543.49
2017-08-14T18:13:29.664Z,94544.73
2017-08-14T18:15:57.367Z,94549.84
2017-08-14T18:18:25.149Z,94559.02
2017-08-14T18:20:52.868Z,94555.25
2017-08-14T18:23:20.692Z,94564.27
2017-08-14T18:25:48.473Z,94561.55
2017-08-14T18:28:16.200Z,94562.70
2017-08-14T18:30:43.988Z,94568.53
2017-08-14T18:33:11.811Z,94572.13
2017-08-14T18:35:39.595Z,94589.44
2017-08-14T18:38:07.347Z,94586.80
2017-08-14T18:40:35.099Z,94595.13
2017-08-14T18:43:02.853Z,94593.01
2017-08-14T18:45:30.573Z,94598.06
2017-08-14T18:47:58.322Z,94599.92
2017-08-14T18:50:26.119Z,94604.80
2017-08-14T18:52:53.905Z,94606.25
2017-08-14T18:55:21.707Z,94610.74
2017-08-14T18:57:49.648Z,94607.61
2017-08-14T19:00:18.201Z,94612.22
2017-08-14T19:02:46.648Z,94619.61
2017-08-14T19:05:14.378Z,94621.85
2017-08-14T19:07:42.943Z,94623.59
2017-08-14T19:10:10.049Z,94624.91
2017-08-14T19:12:37.802Z,94629.13
2017-08-14T19:15:05.591Z,94627.27
2017-08-14T19:17:33.344Z,94630.07
2017-08-14T19:20:01.110Z,94627.81
2017-08-14T19:22:28.905Z,94634.80
2017-08-14T19:24:56.617Z,94639.50
2017-08-14T19:27:24.463Z,94638.47
2017-08-14T19:29:52.216Z,94641.59
2017-08-14T19:32:20.006Z,94647.00
2017-08-14T19:34:47.847Z,94646.17
2017-08-14T19:37:15.577Z,94647.35
2017-08-14T19:39:43.345Z,94637.08
2017-08-14T19:42:12.220Z,94642.77
2017-08-14T19:44:40.048Z,94644.46
2017-08-14T19:47:07.814Z,94646.56
2017-08-14T19:49:35.705Z,94651.86
2017-08-14T19:52:03.524Z,94649.73
2017-08-14T19:54:32.287Z,94656.34
2017-08-14T19:57:00.119Z,94653.39
2017-08-14T19:59:27.926Z,94655.11
2017-08-14T20:01:55.648Z,94655.88
2017-08-14T20:04:23.477Z,94659.28
2017-08-14T20:06:51.328Z,94667.31
2017-08-14T20:09:19.036Z,94666.35
2017-08-14T20:11:46.713Z,94663.72
2017-08-14T20:14:14.493Z,94669.31
2017-08-14T20:16:42.209Z,94669.70
2017-08-14T20:19:10.057Z,94676.02
2017-08-14T20:21:37.848Z,94676.03
2017-08-14T20:24:05.688Z,94675.45
2017-08-14T20:26:33.477Z,94679.00
2017-08-14T20:29:01.194Z,94676.77
2017-08-14T20:31:29.166Z,94676.89
2017-08-14T20:33:56.879Z,94674.59
2017-08-14T20:36:24.660Z,94679.96
2017-08-14T20:38:52.478Z,94685.31
2017-08-14T20:41:20.230Z,94685.61
2017-08-14T20:43:48.039Z,94681.31
2017-08-14T20:46:15.820Z,94687.17
2017-08-14T20:48:43.652Z,94685.63
2017-08-14T20:51:11.423Z,94689.67
2017-08-14T20:53:39.134Z,94690.72
2017-08-14T20:56:07.043Z,94695.45
2017-08-14T20:58:34.795Z,94696.83
2017-08-14T21:01:02.487Z,94695.24
2017-08-14T21:03:30.275Z,94697.09
2017-08-14T21:05:58.044Z,94694.84
2017-08-14T21:08:25.752Z,94692.77
2017-08-14T21:10:53.519Z,94695.56
2017-08-14T21:13:21.297Z,94702.63
2017-08-14T21:15:49.100Z,94692.58
2017-08-14T21:18:16.846Z,94692.95
2017-08-14T21:20:44.578Z,94696.92
2017-08-14T21:23:12.312Z,94700.62
2017-08-14T21:25:40.116Z,94709.89
2017-08-14T21:28:08.165Z,94698.43
2017-08-14T21:30:35.954Z,94702.39
2017-08-14T21:33:03.731Z,94701.59
2017-08-14T21:35:31.464Z,94707.14
2017-08-14T21:37:59.772Z,94706.93
2017-08-14T21:40:27.499Z,94708.01
2017-08-14T21:42:55.276Z,94716.50
2017-08-14T21:45:22.986Z,94712.88
2017-08-14T21:47:50.790Z,94712.84
2017-08-14T21:50:18.512Z,94715.50
2017-08-14T21:52:46.296Z,94710.79
2017-08-14T21:55:14.106Z,94713.81
2017-08-14T21:57:41.904Z,94707.61
2017-08-14T22:00:09.762Z,94709.63
2017-08-14T22:02:37.648Z,94711.44
2017-08-14T22:05:05.442Z,94714.43
2017-08-14T22:07:33.238Z,94714.52
2017-08-14T22:10:00.965Z,94709.91
2017-08-14T22:12:28.760Z,94719.47
2017-08-14T22:14:56.550Z,94716.28
2017-08-14T22:17:24.343Z,94720.90
2017-08-14T22:19:52.212Z,94722.21
2017-08-14T22:22:19.969Z,94721.31
2017-08-14T22:24:48.847Z,94727.05
2017-08-14T22:27:16.583Z,94732.83
2017-08-14T22:29:44.341Z,94722.56
2017-08-14T22:32:12.035Z,94728.47
2017-08-14T22:34:39.782Z,94726.96
2017-08-14T22:37:07.588Z,94730.94
2017-08-14T22:39:35.349Z,94722.48
2017-08-14T22:42:03.234Z,94726.97
2017-08-14T22:44:30.945Z,94730.00
2017-08-14T22:46:58.713Z,94727.45
2017-08-14T22:49:26.558Z,94729.00
2017-08-14T22:51:54.300Z,94728.36
2017-08-14T22:54:22.202Z,94729.44
2017-08-14T22:56:50.069Z,94731.66
2017-08-14T22:59:17.953Z,94734.55
2017-08-14T23:01:45.653Z,94730.46
2017-08-14T23:04:13.356Z,94732.02
2017-08-14T23:06:41.129Z,94734.13
2017-08-14T23:09:08.851Z,94731.33
2017-08-14T23:11:36.618Z,94730.40
2017-08-14T23:14:04.328Z,94725.41
2017-08-14T23:16:32.057Z,94730.02
2017-08-14T23:18:59.840Z,94735.00
2017-08-14T23:21:27.607Z,94732.63
2017-08-14T23:23:55.370Z,94739.88
2017-08-14T23:26:23.110Z,94737.23
2017-08-14T23:28:50.887Z,94738.64
2017-08-14T23:31:18.636Z,94739.45
2017-08-14T23:33:46.369Z,94742.30
2017-08-14T23:36:14.053Z,94732.08
2017-08-14T23:38:41.926Z,94740.56
2017-08-14T23:41:09.654Z,94737.50
2017-08-14T23:43:37.454Z,94727.25
2017-08-14T23:46:05.172Z,94740.94
2017-08-14T23:48:32.901Z,94732.19
2017-08-14T23:51:00.648Z,94735.53
2017-08-14T23:53:28.423Z,94736.17
2017-08-14T23:55:56.144Z,94731.25
2017-08-14T23:58:23.841Z,94739.24
